LEIBLEMH

Guest
Details From LEIB - Ibiza
To LEMH - Menorca
Flight Number -
Tags Generated
Created
Modified
Stats Distance 145 nm / 269 km
Max Altitude 0 ft / 0 m
Waypoints 2
Social Downloads 8
Likes 0
Share VATSIM

Download

Looking for another format? Having issues loading an existing format? Contact us
Advertisement - Login to hide

Notes

Generated

Route

LEIB LEMH

ID Type Via Altitude Latitude Longitude Leg Dist Tot Dist Heading (true) Name
O LEIB APT - 0 ft / 0 m 38.86694˚ 1.35887˚ - 0 nm - -
O LEMH APT - 0 ft / 0 m 39.85339˚ 4.21914˚ 145 nm 145 nm 65° / 67° -

Altitude Profile

Advertisement - Login to hide

LEIB

Details ICAO LEIB (IBZ)
Name Ibiza
Region Spain
Timezone Europe/Madrid (UTC+2.0)
Stats Elevation 20 ft / 6 m (AMSL)
Location 38.872871° 1.373045°
Runways 1
Magnetic Variation 0.711° E

METAR

LEIB 260200Z 03004KT 9000 FEW006 17/16 Q1012 NOSIG

Decode

TAF

TAF LEIB 260200Z 2603/2703 VRB03KT 9999 FEW010 TX25/2612Z TN15/2606Z TEMPO 2603/2607 3000 BR FEW008 BKN010 BECMG 2609/2611 12010KT BECMG 2618/2620 VRB03KT

Decode

Departure Runways

ID Width Length Bearing (true) Bearing (mag) Surface Threshold Offset Overrun Length
06 148 ft / 45 m 9,153 ft / 2,790 m 61.85° 61.14° Asphalt 0 ft / 0 m 213 ft / 65 m
24 148 ft / 45 m 9,153 ft / 2,790 m 241.86° 241.15° Asphalt 0 ft / 0 m 197 ft / 60 m

LEMH

Details ICAO LEMH (MAH)
Name Menorca
Region Spain
Timezone Europe/Madrid (UTC+2.0)
Stats Elevation 298 ft / 91 m (AMSL)
Location 39.862221° 4.219762°
Runways 2
Magnetic Variation 1.373° E

METAR

LEMH 260200Z AUTO 00000KT CAVOK 17/17 Q1015

Decode

TAF

TAF LEMH 260200Z 2603/2703 11011KT 9999 FEW040 TX24/2612Z TN17/2606Z PROB40 TEMPO 2609/2617 11018G30KT

Decode

Destination Runways

ID Width Length Bearing (true) Bearing (mag) Surface Threshold Offset Overrun Length
01L 148 ft / 45 m 7,723 ft / 2,354 m 8.97° 7.60° Asphalt 0 ft / 0 m 164 ft / 50 m
01R 148 ft / 45 m 6,903 ft / 2,104 m 8.97° 7.60° Asphalt 0 ft / 0 m 0 ft / 0 m
19L 148 ft / 45 m 6,903 ft / 2,104 m 188.97° 187.60° Asphalt 0 ft / 0 m 0 ft / 0 m
19R 148 ft / 45 m 7,723 ft / 2,354 m 188.97° 187.60° Asphalt 0 ft / 0 m 164 ft / 50 m

Approach Navaids

Runway Type Ident Frequency Range Bearing (true) Bearing (mag) Slope Elevation
01L Localiser IMH 110.30 MHz 18 nm / 33 km 8.97° 7.59° - 298 ft / 91 m (AMSL)
01L Glidescope IMH 110.30 MHz 10 nm / 19 km 8.97° 7.59° 3.00° 298 ft / 91 m (AMSL)
01L DME IMH 110.30 MHz 18 nm / 33 km - - - 298 ft / 91 m (AMSL)

Popular Alternatives